createdAt,value
2019-05-13T00:02:04.769Z,103084.57
2019-05-13T00:04:34.554Z,103093.95
2019-05-13T00:07:04.865Z,103085.28
2019-05-13T00:09:34.285Z,103083.80
2019-05-13T00:12:04.711Z,103086.20
2019-05-13T00:14:35.243Z,103096.12
2019-05-13T00:17:04.897Z,103090.45
2019-05-13T00:19:35.216Z,103088.61
2019-05-13T00:22:04.576Z,103092.03
2019-05-13T00:24:34.204Z,103089.44
2019-05-13T00:27:04.107Z,103087.47
2019-05-13T00:29:34.688Z,103089.20
2019-05-13T00:32:04.744Z,103086.88
2019-05-13T00:34:34.420Z,103079.72
2019-05-13T00:37:10.766Z,103084.37
2019-05-13T00:39:34.812Z,103080.83
2019-05-13T00:42:04.285Z,103078.98
2019-05-13T00:44:33.986Z,103079.69
2019-05-13T00:47:04.736Z,103074.37
2019-05-13T00:49:34.632Z,103082.08
2019-05-13T00:52:04.428Z,103079.84
2019-05-13T00:54:34.314Z,103077.13
2019-05-13T00:57:04.397Z,103076.02
2019-05-13T00:59:34.758Z,103077.13
2019-05-13T01:02:04.400Z,103079.12
2019-05-13T01:04:34.088Z,103085.02
2019-05-13T01:07:04.497Z,103089.53
2019-05-13T01:09:34.377Z,103094.40
2019-05-13T01:12:04.354Z,103091.56
2019-05-13T01:14:34.298Z,103093.39
2019-05-13T01:17:04.140Z,103086.22
2019-05-13T01:19:34.227Z,103083.50
2019-05-13T01:22:03.818Z,103085.15
2019-05-13T01:24:33.896Z,103085.41
2019-05-13T01:27:04.486Z,103086.16
2019-05-13T01:33:20.247Z,103087.03
2019-05-13T01:35:49.598Z,103090.02
2019-05-13T01:38:18.975Z,103089.33
2019-05-13T01:40:48.358Z,103092.05
2019-05-13T01:43:17.700Z,103092.66
2019-05-13T01:45:47.042Z,103087.20
2019-05-13T01:48:16.424Z,103082.70
2019-05-13T01:50:45.785Z,103092.86
2019-05-13T01:53:15.132Z,103094.46
2019-05-13T01:55:44.563Z,103087.45
2019-05-13T01:58:14.625Z,103095.88
2019-05-13T02:00:44.642Z,103083.73
2019-05-13T02:03:14.732Z,103085.38
2019-05-13T02:05:44.494Z,103091.03
2019-05-13T02:08:14.539Z,103094.05
2019-05-13T02:10:54.281Z,103095.34
2019-05-13T02:13:24.457Z,103089.27
2019-05-13T02:15:55.759Z,103101.17
2019-05-13T02:18:26.084Z,103097.16
2019-05-13T02:20:56.102Z,103099.27
2019-05-13T02:23:25.504Z,103099.61
2019-05-13T02:25:55.164Z,103103.36
2019-05-13T02:28:25.244Z,103109.35
2019-05-13T02:30:56.943Z,103104.42
2019-05-13T02:33:25.755Z,103108.56
2019-05-13T02:35:55.137Z,103099.27
2019-05-13T02:38:30.299Z,103103.66
2019-05-13T02:40:55.506Z,103107.73
2019-05-13T02:43:24.854Z,103107.52
2019-05-13T02:45:54.487Z,103110.77
2019-05-13T02:48:24.411Z,103110.94
2019-05-13T02:50:54.548Z,103113.47
2019-05-13T02:53:25.143Z,103118.80
2019-05-13T02:55:54.668Z,103114.63
2019-05-13T02:58:25.376Z,103123.12
2019-05-13T03:00:54.935Z,103119.00
2019-05-13T03:03:24.284Z,103127.34
2019-05-13T03:05:54.072Z,103123.23
2019-05-13T03:08:39.575Z,103126.00
2019-05-13T03:10:55.455Z,103130.12
2019-05-13T03:13:24.825Z,103132.56
2019-05-13T03:16:02.896Z,103131.11
2019-05-13T03:18:33.518Z,103131.02
2019-05-13T03:21:04.088Z,103133.46
2019-05-13T03:23:33.695Z,103138.97
2019-05-13T03:26:03.400Z,103138.78
2019-05-13T03:28:33.911Z,103139.44
2019-05-13T03:31:06.148Z,103140.97
2019-05-13T03:33:37.563Z,103138.23
2019-05-13T03:36:08.353Z,103135.07
2019-05-13T03:38:58.785Z,103155.28
2019-05-13T03:41:12.355Z,103145.17
2019-05-13T03:43:44.175Z,103155.75
2019-05-13T03:46:13.606Z,103155.20
2019-05-13T03:48:43.294Z,103152.43
2019-05-13T03:51:14.042Z,103157.06
2019-05-13T03:53:44.331Z,103164.63
2019-05-13T03:56:13.698Z,103161.49
2019-05-13T03:58:43.883Z,103167.38
2019-05-13T04:01:13.740Z,103169.87
2019-05-13T04:03:44.216Z,103170.77
2019-05-13T04:06:14.367Z,103166.89
2019-05-13T04:08:44.217Z,103168.28
2019-05-13T04:11:14.249Z,103172.22
2019-05-13T04:13:43.676Z,103171.09
2019-05-13T04:16:13.480Z,103182.10
2019-05-13T04:18:43.352Z,103174.11
2019-05-13T04:21:13.490Z,103178.24
2019-05-13T04:23:43.334Z,103180.66
2019-05-13T04:26:15.162Z,103180.91
2019-05-13T04:28:44.674Z,103184.22
2019-05-13T04:31:14.783Z,103186.16
2019-05-13T04:33:44.372Z,103186.40
2019-05-13T04:36:14.045Z,103179.36
2019-05-13T04:38:44.529Z,103187.19
2019-05-13T04:41:14.288Z,103185.52
2019-05-13T04:43:44.343Z,103187.73
2019-05-13T04:46:14.649Z,103190.95
2019-05-13T04:48:44.732Z,103185.77
2019-05-13T04:51:14.478Z,103186.16
2019-05-13T04:53:43.858Z,103188.82
2019-05-13T04:56:14.138Z,103194.91
2019-05-13T04:58:43.815Z,103188.08
2019-05-13T05:01:24.769Z,103195.45
2019-05-13T05:04:03.610Z,103192.88
2019-05-13T05:06:36.236Z,103203.02
2019-05-13T05:09:08.619Z,103202.54
2019-05-13T05:11:53.051Z,103199.58
2019-05-13T05:14:28.067Z,103202.91
2019-05-13T05:17:16.930Z,103199.73
2019-05-13T05:20:14.640Z,103201.52
2019-05-13T05:23:05.974Z,103195.34
2019-05-13T05:25:44.173Z,103193.27
2019-05-13T05:28:31.977Z,103191.47
2019-05-13T05:31:04.370Z,103187.58
2019-05-13T05:33:42.496Z,103180.29
2019-05-13T05:36:46.017Z,103182.31
2019-05-13T05:39:26.101Z,103189.25
2019-05-13T05:41:57.912Z,103188.30
2019-05-13T05:44:32.358Z,103184.63
2019-05-13T05:47:03.983Z,103185.27
2019-05-13T05:49:33.455Z,103186.49
2019-05-13T05:52:06.957Z,103193.22
2019-05-13T05:54:39.091Z,103178.44
2019-05-13T05:57:12.131Z,103184.68
2019-05-13T05:59:42.664Z,103184.68
2019-05-13T06:02:12.518Z,103191.70
2019-05-13T06:04:43.203Z,103186.08
2019-05-13T06:07:13.925Z,103186.46
2019-05-13T06:09:43.327Z,103200.30
2019-05-13T06:12:13.168Z,103196.52
2019-05-13T06:14:44.056Z,103188.20
2019-05-13T06:17:13.481Z,103187.14
2019-05-13T06:19:43.012Z,103176.09
2019-05-13T06:22:12.524Z,103187.59
2019-05-13T06:24:42.454Z,103186.63
2019-05-13T06:27:12.023Z,103175.69
2019-05-13T06:29:42.274Z,103180.33
2019-05-13T06:32:21.203Z,103181.68
2019-05-13T06:34:42.994Z,103186.97
2019-05-13T06:37:12.359Z,103182.59
2019-05-13T06:39:42.117Z,103185.23
2019-05-13T06:42:11.780Z,103184.78
2019-05-13T06:44:42.081Z,103190.03
2019-05-13T06:47:11.637Z,103183.81
2019-05-13T06:49:42.762Z,103179.48
2019-05-13T06:52:12.301Z,103183.05
2019-05-13T06:54:42.023Z,103180.80
2019-05-13T06:57:13.489Z,103177.16
2019-05-13T06:59:42.988Z,103171.53
2019-05-13T07:02:12.620Z,103173.85
2019-05-13T07:04:41.993Z,103173.29
2019-05-13T07:07:16.232Z,103176.66
2019-05-13T07:09:42.829Z,103172.69
2019-05-13T07:12:12.173Z,103168.47
2019-05-13T07:14:41.539Z,103167.94
2019-05-13T07:17:12.371Z,103171.91
2019-05-13T07:19:41.857Z,103172.78
2019-05-13T07:22:11.745Z,103170.84
2019-05-13T07:24:42.102Z,103164.97
2019-05-13T07:27:12.228Z,103169.73
2019-05-13T07:29:42.496Z,103173.02
2019-05-13T07:32:12.205Z,103164.91
2019-05-13T07:34:43.971Z,103168.72
2019-05-13T07:37:12.574Z,103177.65
2019-05-13T07:39:42.469Z,103166.84
2019-05-13T07:42:12.459Z,103167.28
2019-05-13T07:44:41.895Z,103173.42
2019-05-13T07:47:11.822Z,103178.33
2019-05-13T07:49:41.974Z,103172.52
2019-05-13T07:52:12.049Z,103175.50
2019-05-13T07:54:42.047Z,103175.90
2019-05-13T07:57:12.229Z,103172.59
2019-05-13T07:59:42.228Z,103167.58
2019-05-13T08:02:12.364Z,103169.45
2019-05-13T08:04:42.214Z,103172.09
2019-05-13T08:07:12.171Z,103173.84
2019-05-13T08:09:41.983Z,103171.69
2019-05-13T08:12:14.321Z,103168.26
2019-05-13T08:14:43.638Z,103168.18
2019-05-13T08:17:13.457Z,103166.83
2019-05-13T08:19:42.772Z,103162.97
2019-05-13T08:22:12.287Z,103167.05
2019-05-13T08:24:42.516Z,103164.10
2019-05-13T08:27:12.072Z,103171.08
2019-05-13T08:29:42.079Z,103174.22
2019-05-13T08:32:12.676Z,103173.03
2019-05-13T08:34:42.038Z,103171.06
2019-05-13T08:37:11.592Z,103176.35
2019-05-13T08:39:41.610Z,103168.50
2019-05-13T08:42:15.956Z,103163.21
2019-05-13T08:44:42.179Z,103170.54
2019-05-13T08:47:12.048Z,103149.81
2019-05-13T08:49:41.712Z,103154.40
2019-05-13T08:52:12.123Z,103150.59
2019-05-13T08:54:41.988Z,103155.48
2019-05-13T08:57:11.960Z,103149.00
2019-05-13T08:59:42.202Z,103154.50
2019-05-13T09:02:12.066Z,103166.05
2019-05-13T09:04:42.271Z,103155.13
2019-05-13T09:07:12.254Z,103163.96
2019-05-13T09:09:42.703Z,103161.05
2019-05-13T09:12:28.180Z,103166.05
2019-05-13T09:14:43.149Z,103161.96
2019-05-13T09:17:12.504Z,103165.72
2019-05-13T09:19:42.690Z,103162.96
2019-05-13T09:22:12.550Z,103156.13
2019-05-13T09:24:42.642Z,103160.67
2019-05-13T09:27:13.115Z,103162.89
2019-05-13T09:29:42.965Z,103162.32
2019-05-13T09:32:13.286Z,103159.18
2019-05-13T09:34:42.667Z,103165.33
2019-05-13T09:37:12.326Z,103161.42
2019-05-13T09:39:41.682Z,103158.63
2019-05-13T09:42:12.748Z,103150.84
2019-05-13T09:44:42.224Z,103159.45
2019-05-13T09:47:12.398Z,103163.02
2019-05-13T09:49:43.078Z,103165.05
2019-05-13T09:52:12.450Z,103152.35
2019-05-13T09:54:42.802Z,103149.18
2019-05-13T09:57:12.604Z,103153.41
2019-05-13T09:59:42.382Z,103148.22
2019-05-13T10:02:12.796Z,103147.97
2019-05-13T10:04:43.709Z,103153.09
2019-05-13T10:07:13.421Z,103142.30
2019-05-13T10:09:43.638Z,103147.47
2019-05-13T10:12:13.929Z,103144.34
2019-05-13T10:14:43.311Z,103149.43
2019-05-13T10:17:13.394Z,103148.95
2019-05-13T10:19:42.810Z,103139.88
2019-05-13T10:22:12.242Z,103146.22
2019-05-13T10:24:42.509Z,103148.59
2019-05-13T10:27:12.702Z,103148.48
2019-05-13T10:29:42.941Z,103151.44
2019-05-13T10:32:12.330Z,103157.91
2019-05-13T10:34:42.776Z,103149.94
2019-05-13T10:37:12.366Z,103149.08
2019-05-13T10:39:41.796Z,103151.62
2019-05-13T10:42:12.054Z,103152.03
2019-05-13T10:44:42.491Z,103153.81
2019-05-13T10:47:12.307Z,103155.87
2019-05-13T10:49:42.637Z,103156.69
2019-05-13T10:52:12.457Z,103146.74
2019-05-13T10:54:42.800Z,103158.74
2019-05-13T10:57:13.764Z,103153.53
2019-05-13T10:59:43.227Z,103142.09
2019-05-13T11:02:13.542Z,103146.02
2019-05-13T11:04:42.932Z,103132.81
2019-05-13T11:07:12.311Z,103134.11
2019-05-13T11:09:42.032Z,103126.17
2019-05-13T11:12:12.425Z,103125.69
2019-05-13T11:14:46.782Z,103124.36
2019-05-13T11:17:13.965Z,103122.16
2019-05-13T11:19:43.368Z,103114.68
2019-05-13T11:22:12.727Z,103126.13
2019-05-13T11:24:43.135Z,103129.58
2019-05-13T11:27:12.731Z,103118.55
2019-05-13T11:29:42.125Z,103120.33
2019-05-13T11:32:13.223Z,103112.83
2019-05-13T11:34:42.613Z,103113.72
2019-05-13T11:37:12.945Z,103108.90
2019-05-13T11:39:42.834Z,103103.19
2019-05-13T11:42:13.741Z,103105.81
2019-05-13T11:44:44.238Z,103097.41
2019-05-13T11:47:14.065Z,103105.77
2019-05-13T11:49:43.417Z,103096.08
2019-05-13T11:52:12.775Z,103099.98
2019-05-13T11:54:42.647Z,103093.79
2019-05-13T11:57:12.602Z,103092.02
2019-05-13T11:59:43.040Z,103084.08
2019-05-13T12:02:13.752Z,103077.95
2019-05-13T12:04:44.047Z,103072.27
2019-05-13T12:07:13.805Z,103076.23
2019-05-13T12:09:43.281Z,103081.03
2019-05-13T12:12:13.899Z,103076.21
2019-05-13T12:15:04.897Z,103077.07
2019-05-13T12:17:14.653Z,103075.31
2019-05-13T12:19:44.984Z,103071.38
2019-05-13T12:22:14.356Z,103063.03
2019-05-13T12:24:43.704Z,103066.56
2019-05-13T12:27:13.067Z,103050.73
2019-05-13T12:29:43.179Z,103065.28
2019-05-13T12:32:13.951Z,103063.50
2019-05-13T12:34:45.754Z,103056.87
2019-05-13T12:37:15.324Z,103052.48
2019-05-13T12:39:44.676Z,103048.08
2019-05-13T12:42:15.011Z,103056.01
2019-05-13T12:45:00.328Z,103053.81
2019-05-13T12:47:16.466Z,103044.13
2019-05-13T12:49:45.764Z,103037.03
2019-05-13T12:52:15.129Z,103042.28
2019-05-13T12:54:44.565Z,103046.25
2019-05-13T12:57:16.365Z,103038.30
2019-05-13T12:59:45.813Z,103033.47
2019-05-13T13:02:16.161Z,103029.95
2019-05-13T13:05:07.981Z,103026.03
2019-05-13T13:07:16.574Z,103027.81
2019-05-13T13:09:45.955Z,103032.68
2019-05-13T13:12:15.314Z,103020.34
2019-05-13T13:14:44.848Z,103024.75
2019-05-13T13:17:14.263Z,103028.20
2019-05-13T13:19:43.571Z,103024.25
2019-05-13T13:22:13.703Z,103020.30
2019-05-13T13:24:50.806Z,103020.73
2019-05-13T13:27:21.000Z,103015.46
2019-05-13T13:29:45.373Z,103022.05
2019-05-13T13:32:14.720Z,103015.48
2019-05-13T13:34:44.458Z,103008.00
2019-05-13T13:37:13.837Z,103004.92
2019-05-13T13:39:43.606Z,102986.92
2019-05-13T13:42:13.399Z,102984.74
2019-05-13T13:44:43.193Z,102996.16
2019-05-13T13:47:14.829Z,102989.58
2019-05-13T13:49:44.109Z,102985.16
2019-05-13T13:52:16.025Z,102988.20
2019-05-13T13:54:44.606Z,102985.57
2019-05-13T13:57:14.037Z,102981.63
2019-05-13T14:00:14.085Z,102986.90
2019-05-13T14:02:14.506Z,102977.72
2019-05-13T14:04:43.851Z,102973.77
2019-05-13T14:07:27.834Z,102982.99
2019-05-13T14:09:44.669Z,102965.90
2019-05-13T14:12:14.104Z,102976.44
2019-05-13T14:14:43.505Z,102968.95
2019-05-13T14:17:12.847Z,102969.83
2019-05-13T14:19:42.392Z,102957.95
2019-05-13T14:22:12.584Z,102953.16
2019-05-13T14:24:42.649Z,102947.03
2019-05-13T14:27:12.356Z,102957.60
2019-05-13T14:29:48.885Z,102944.86
2019-05-13T14:32:12.973Z,102940.00
2019-05-13T14:34:42.374Z,102938.72
2019-05-13T14:37:12.030Z,102939.61
2019-05-13T14:39:41.686Z,102935.21
2019-05-13T14:42:11.766Z,102933.89
2019-05-13T14:44:41.303Z,102934.34
2019-05-13T14:47:12.552Z,102924.22
2019-05-13T14:49:42.386Z,102932.56
2019-05-13T14:52:12.881Z,102924.66
2019-05-13T14:54:42.318Z,102925.98
2019-05-13T14:57:14.791Z,102925.56
2019-05-13T14:59:43.122Z,102918.52
2019-05-13T15:02:12.500Z,102918.50
2019-05-13T15:04:42.437Z,102931.24
2019-05-13T15:07:12.370Z,102932.55
2019-05-13T15:09:42.639Z,102929.45
2019-05-13T15:12:11.995Z,102922.83
2019-05-13T15:14:42.939Z,102923.27
2019-05-13T15:17:12.934Z,102914.92
2019-05-13T15:19:42.349Z,102914.49
2019-05-13T15:22:15.547Z,102909.22
2019-05-13T15:24:42.804Z,102913.59
2019-05-13T15:27:12.142Z,102912.70
2019-05-13T15:29:41.853Z,102906.12
2019-05-13T15:32:11.299Z,102905.27
2019-05-13T15:34:42.477Z,102908.33
2019-05-13T15:37:11.670Z,102910.08
2019-05-13T15:39:42.555Z,102910.52
2019-05-13T15:42:13.010Z,102904.83
2019-05-13T15:44:42.375Z,102899.59
2019-05-13T15:47:22.835Z,102897.80
2019-05-13T15:49:42.832Z,102894.28
2019-05-13T15:52:12.171Z,102891.20
2019-05-13T15:54:41.662Z,102893.38
2019-05-13T15:57:11.881Z,102898.65
2019-05-13T15:59:42.393Z,102891.63
2019-05-13T16:02:11.976Z,102887.23
2019-05-13T16:04:51.872Z,102885.91
2019-05-13T16:07:12.459Z,102885.91
2019-05-13T16:09:42.180Z,102886.35
2019-05-13T16:12:12.141Z,102886.80
2019-05-13T16:14:42.088Z,102878.91
2019-05-13T16:17:12.217Z,102891.19
2019-05-13T16:19:42.080Z,102880.63
2019-05-13T16:22:12.016Z,102879.75
2019-05-13T16:24:41.713Z,102875.77
2019-05-13T16:27:11.818Z,102876.23
2019-05-13T16:29:42.156Z,102879.72
2019-05-13T16:32:12.096Z,102867.91
2019-05-13T16:34:42.626Z,102870.94
2019-05-13T16:37:11.905Z,102861.72
2019-05-13T16:39:41.593Z,102868.74
2019-05-13T16:42:11.618Z,102863.04
2019-05-13T16:44:43.018Z,102868.27
2019-05-13T16:47:12.514Z,102859.07
2019-05-13T16:49:41.891Z,102862.58
2019-05-13T16:52:11.873Z,102865.22
2019-05-13T16:54:42.471Z,102867.84
2019-05-13T16:57:12.047Z,102866.95
2019-05-13T16:59:41.433Z,102866.06
2019-05-13T17:02:12.627Z,102860.78
2019-05-13T17:04:41.839Z,102862.95
2019-05-13T17:07:11.208Z,102855.06
2019-05-13T17:09:41.551Z,102860.34
2019-05-13T17:12:13.908Z,102855.94
2019-05-13T17:14:43.084Z,102856.40
2019-05-13T17:17:12.475Z,102854.66
2019-05-13T17:19:42.348Z,102846.74
2019-05-13T17:22:11.770Z,102850.66
2019-05-13T17:24:42.627Z,102851.09
2019-05-13T17:27:13.052Z,102853.28
2019-05-13T17:29:42.449Z,102850.63
2019-05-13T17:32:11.877Z,102845.36
2019-05-13T17:34:45.474Z,102854.56
2019-05-13T17:37:12.300Z,102842.70
2019-05-13T17:39:41.693Z,102854.11
2019-05-13T17:42:12.310Z,102849.75
2019-05-13T17:44:46.238Z,102855.41
2019-05-13T17:47:14.132Z,102849.68
2019-05-13T17:49:43.490Z,102848.34
2019-05-13T17:52:12.857Z,102840.45
2019-05-13T17:54:42.833Z,102838.68
2019-05-13T17:57:12.514Z,102841.70
2019-05-13T17:59:41.989Z,102835.55
2019-05-13T18:02:11.983Z,102834.66
2019-05-13T18:04:41.676Z,102833.33
2019-05-13T18:07:12.164Z,102838.06
2019-05-13T18:09:42.361Z,102833.20
2019-05-13T18:12:11.776Z,102834.92
2019-05-13T18:14:41.367Z,102824.82
2019-05-13T18:17:12.543Z,102841.03
2019-05-13T18:19:42.283Z,102836.63
2019-05-13T18:22:12.612Z,102829.59
2019-05-13T18:24:41.997Z,102829.56
2019-05-13T18:27:12.295Z,102826.00
2019-05-13T18:29:42.118Z,102827.72
2019-05-13T18:32:12.393Z,102822.03
2019-05-13T18:34:41.860Z,102820.66
2019-05-13T18:37:11.858Z,102819.74
2019-05-13T18:39:41.746Z,102824.03
2019-05-13T18:42:11.619Z,102823.11
2019-05-13T18:44:42.137Z,102822.63
2019-05-13T18:47:12.189Z,102819.07
2019-05-13T18:49:42.473Z,102824.27
2019-05-13T18:52:11.919Z,102821.95
2019-05-13T18:54:42.101Z,102823.20
2019-05-13T18:57:12.576Z,102820.92
2019-05-13T18:59:41.948Z,102828.31
2019-05-13T19:02:12.285Z,102830.83
2019-05-13T19:04:41.970Z,102822.39
2019-05-13T19:07:11.668Z,102824.07
2019-05-13T19:09:41.762Z,102829.68
2019-05-13T19:12:11.750Z,102837.47
2019-05-13T19:14:42.125Z,102848.31
2019-05-13T19:17:12.306Z,102846.87
2019-05-13T19:19:42.873Z,102851.16
2019-05-13T19:22:12.445Z,102843.20
2019-05-13T19:24:41.967Z,102846.55
2019-05-13T19:27:12.020Z,102849.97
2019-05-13T19:29:42.632Z,102842.86
2019-05-13T19:32:12.558Z,102845.41
2019-05-13T19:34:42.487Z,102848.78
2019-05-13T19:37:11.943Z,102854.33
2019-05-13T19:39:41.426Z,102849.38
2019-05-13T19:42:11.576Z,102842.27
2019-05-13T19:44:42.076Z,102842.85
2019-05-13T19:47:12.464Z,102842.85
2019-05-13T19:49:46.286Z,102845.76
2019-05-13T19:52:14.026Z,102845.30
2019-05-13T19:54:44.355Z,102856.06
2019-05-13T19:57:13.747Z,102850.66
2019-05-13T19:59:43.107Z,102850.52
2019-05-13T20:02:12.550Z,102855.17
2019-05-13T20:04:42.826Z,102857.66
2019-05-13T20:07:12.678Z,102857.11
2019-05-13T20:09:43.627Z,102853.04
2019-05-13T20:12:15.795Z,102860.34
2019-05-13T20:14:45.032Z,102860.65
2019-05-13T20:17:14.389Z,102860.55
2019-05-13T20:19:50.086Z,102866.55
2019-05-13T20:22:14.847Z,102867.30
2019-05-13T20:24:44.247Z,102861.11
2019-05-13T20:27:13.620Z,102854.83
2019-05-13T20:29:42.986Z,102863.53
2019-05-13T20:32:12.358Z,102863.53
2019-05-13T20:34:42.709Z,102864.78
2019-05-13T20:37:12.533Z,102867.84
2019-05-13T20:39:42.556Z,102871.31
2019-05-13T20:42:12.462Z,102872.57
2019-05-13T20:44:42.154Z,102869.45
2019-05-13T20:47:11.493Z,102874.63
2019-05-13T20:49:41.801Z,102877.14
2019-05-13T20:52:15.244Z,102873.63
2019-05-13T20:54:43.329Z,102876.22
2019-05-13T20:57:21.559Z,102875.83
2019-05-13T20:59:51.621Z,102878.73
2019-05-13T21:02:22.164Z,102877.37
2019-05-13T21:04:51.719Z,102883.91
2019-05-13T21:07:21.743Z,102883.80
2019-05-13T21:09:51.348Z,102885.45
2019-05-13T21:12:22.006Z,102882.38
2019-05-13T21:14:51.496Z,102878.34
2019-05-13T21:17:21.385Z,102888.34
2019-05-13T21:19:52.842Z,102889.60
2019-05-13T21:22:23.009Z,102892.61
2019-05-13T21:24:52.358Z,102887.74
2019-05-13T21:27:21.711Z,102889.45
2019-05-13T21:29:51.971Z,102890.24
2019-05-13T21:32:21.529Z,102890.18
2019-05-13T21:34:51.589Z,102895.30
2019-05-13T21:37:22.108Z,102898.36
2019-05-13T21:39:51.778Z,102893.48
2019-05-13T21:42:21.709Z,102889.95
2019-05-13T21:44:51.399Z,102889.91
2019-05-13T21:47:22.013Z,102888.53
2019-05-13T21:49:51.679Z,102886.33
2019-05-13T21:52:21.583Z,102896.30
2019-05-13T21:54:52.135Z,102891.42
2019-05-13T21:57:21.494Z,102893.58
2019-05-13T21:59:51.613Z,102900.05
2019-05-13T22:02:23.254Z,102896.91
2019-05-13T22:04:53.343Z,102896.85
2019-05-13T22:07:22.697Z,102896.29
2019-05-13T22:09:52.066Z,102895.30
2019-05-13T22:12:21.796Z,102887.73
2019-05-13T22:14:51.742Z,102888.01
2019-05-13T22:17:21.227Z,102887.04
2019-05-13T22:19:51.239Z,102884.37
2019-05-13T22:22:22.062Z,102888.27
2019-05-13T22:24:51.553Z,102890.78
2019-05-13T22:27:21.905Z,102884.64
2019-05-13T22:29:51.742Z,102887.64
2019-05-13T22:32:21.981Z,102883.19
2019-05-13T22:34:51.528Z,102884.32
2019-05-13T22:37:23.037Z,102883.33
2019-05-13T22:39:51.959Z,102881.45
2019-05-13T22:42:21.631Z,102875.25
2019-05-13T22:44:52.223Z,102878.63
2019-05-13T22:47:22.097Z,102883.25
2019-05-13T22:49:51.506Z,102880.92
2019-05-13T22:52:21.879Z,102880.30
2019-05-13T22:54:51.893Z,102884.95
2019-05-13T22:57:22.312Z,102878.76
2019-05-13T22:59:52.648Z,102881.67
2019-05-13T23:02:22.121Z,102878.98
2019-05-13T23:04:51.444Z,102879.71
2019-05-13T23:07:22.301Z,102872.20
2019-05-13T23:09:52.037Z,102875.18
2019-05-13T23:12:21.465Z,102869.45
2019-05-13T23:14:52.045Z,102864.16
2019-05-13T23:17:21.727Z,102867.09
2019-05-13T23:19:52.177Z,102868.72
2019-05-13T23:22:21.893Z,102872.95
2019-05-13T23:24:51.263Z,102868.95
2019-05-13T23:27:21.981Z,102869.34
2019-05-13T23:29:52.520Z,102876.17
2019-05-13T23:32:21.894Z,102866.50
2019-05-13T23:34:52.069Z,102868.07
2019-05-13T23:37:21.818Z,102864.45
2019-05-13T23:39:52.104Z,102860.89
2019-05-13T23:42:21.554Z,102855.16
2019-05-13T23:44:51.736Z,102851.48
2019-05-13T23:47:21.861Z,102846.97
2019-05-13T23:49:51.455Z,102851.17
2019-05-13T23:52:22.011Z,102849.81
2019-05-13T23:54:51.752Z,102852.33
2019-05-13T23:57:22.380Z,102854.72
2019-05-13T23:59:51.781Z,102853.70
